createdAt,value
2023-08-29T00:01:38.819Z,94272.44
2023-08-29T00:04:05.729Z,94270.97
2023-08-29T00:06:32.683Z,94260.31
2023-08-29T00:08:59.364Z,94255.22
2023-08-29T00:11:26.210Z,94248.41
2023-08-29T00:13:53.787Z,94249.44
2023-08-29T00:16:20.703Z,94242.63
2023-08-29T00:18:47.448Z,94252.06
2023-08-29T00:21:14.169Z,94244.13
2023-08-29T00:23:40.861Z,94246.28
2023-08-29T00:26:07.733Z,94240.38
2023-08-29T00:28:34.474Z,94242.97
2023-08-29T00:31:01.354Z,94233.56
2023-08-29T00:33:28.106Z,94231.28
2023-08-29T00:35:54.871Z,94229.94
2023-08-29T00:38:21.590Z,94237.69
2023-08-29T00:40:48.400Z,94229.84
2023-08-29T00:43:15.173Z,94234.50
2023-08-29T00:45:42.145Z,94229.28
2023-08-29T00:48:11.930Z,94235.88
2023-08-29T00:50:39.154Z,94242.09
2023-08-29T00:53:07.066Z,94238.25
2023-08-29T00:55:35.267Z,94247.00
2023-08-29T00:58:03.429Z,94244.38
2023-08-29T01:00:31.537Z,94253.34
2023-08-29T01:02:59.124Z,94247.91
2023-08-29T01:05:26.193Z,94244.41
2023-08-29T01:07:54.386Z,94239.75
2023-08-29T01:10:23.584Z,94235.22
2023-08-29T01:13:12.265Z,94232.72
2023-08-29T01:15:43.344Z,94233.41
2023-08-29T01:18:12.896Z,94241.34
2023-08-29T01:20:40.809Z,94228.22
2023-08-29T01:23:14.859Z,94218.47
2023-08-29T01:26:08.357Z,94219.03
2023-08-29T01:28:36.905Z,94205.75
2023-08-29T01:31:04.801Z,94208.38
2023-08-29T01:33:31.718Z,94198.97
2023-08-29T01:35:58.458Z,94200.78
2023-08-29T01:38:25.327Z,94207.13
2023-08-29T01:40:52.172Z,94194.06
2023-08-29T01:43:19.183Z,94201.56
2023-08-29T01:45:46.003Z,94198.03
2023-08-29T01:48:12.894Z,94197.13
2023-08-29T01:50:40.804Z,94192.81
2023-08-29T01:53:09.279Z,94198.63
2023-08-29T01:55:36.862Z,94199.75
2023-08-29T01:58:04.991Z,94202.34
2023-08-29T02:00:33.020Z,94202.09
2023-08-29T02:02:59.741Z,94209.25
2023-08-29T02:05:26.571Z,94207.00
2023-08-29T02:07:53.328Z,94202.09
2023-08-29T02:10:20.254Z,94201.44
2023-08-29T02:12:46.969Z,94206.06
2023-08-29T02:15:13.721Z,94205.28
2023-08-29T02:17:43.038Z,94203.94
2023-08-29T02:20:09.970Z,94208.56
2023-08-29T02:22:37.709Z,94206.19
2023-08-29T02:25:05.852Z,94212.94
2023-08-29T02:27:35.611Z,94214.88
2023-08-29T02:30:04.416Z,94205.13
2023-08-29T02:32:32.208Z,94206.72
2023-08-29T02:34:59.013Z,94202.28
2023-08-29T02:37:25.740Z,94196.41
2023-08-29T02:39:52.485Z,94189.41
2023-08-29T02:42:20.874Z,94198.34
2023-08-29T02:44:47.559Z,94192.91
2023-08-29T02:47:14.512Z,94195.16
2023-08-29T02:49:41.295Z,94197.44
2023-08-29T02:52:08.059Z,94195.03
2023-08-29T02:54:35.366Z,94189.00
2023-08-29T02:57:02.067Z,94198.41
2023-08-29T02:59:29.118Z,94199.75
2023-08-29T03:01:55.833Z,94207.44
2023-08-29T03:04:22.610Z,94204.59
2023-08-29T03:06:51.822Z,94203.25
2023-08-29T03:09:18.785Z,94203.78
2023-08-29T03:11:45.535Z,94203.13
2023-08-29T03:14:12.465Z,94211.38
2023-08-29T03:16:39.253Z,94204.22
2023-08-29T03:19:06.259Z,94199.78
2023-08-29T03:21:33.131Z,94201.50
2023-08-29T03:23:59.888Z,94193.50
2023-08-29T03:26:26.624Z,94189.72
2023-08-29T03:28:53.392Z,94199.44
2023-08-29T03:31:20.434Z,94192.28
2023-08-29T03:33:48.042Z,94193.81
2023-08-29T03:36:15.391Z,94192.66
2023-08-29T03:38:43.348Z,94191.41
2023-08-29T03:41:10.523Z,94193.78
2023-08-29T03:43:37.469Z,94191.50
2023-08-29T03:46:05.412Z,94180.63
2023-08-29T03:48:32.967Z,94186.44
2023-08-29T03:51:00.080Z,94178.72
2023-08-29T03:53:26.908Z,94176.47
2023-08-29T03:55:54.049Z,94170.69
2023-08-29T03:58:21.118Z,94170.56
2023-08-29T04:00:48.019Z,94175.13
2023-08-29T04:03:15.027Z,94178.22
2023-08-29T04:05:41.884Z,94174.03
2023-08-29T04:08:08.904Z,94170.66
2023-08-29T04:10:40.219Z,94159.03
2023-08-29T04:13:07.509Z,94175.56
2023-08-29T04:15:34.959Z,94182.78
2023-08-29T04:18:05.421Z,94189.13
2023-08-29T04:20:32.634Z,94182.72
2023-08-29T04:22:59.541Z,94172.16
2023-08-29T04:25:29.615Z,94168.19
2023-08-29T04:27:56.842Z,94162.09
2023-08-29T04:30:23.606Z,94164.47
2023-08-29T04:32:51.696Z,94167.06
2023-08-29T04:35:18.993Z,94170.38
2023-08-29T04:37:49.883Z,94167.19
2023-08-29T04:40:17.626Z,94176.69
2023-08-29T04:42:46.268Z,94177.28
2023-08-29T04:45:13.964Z,94172.66
2023-08-29T04:47:41.401Z,94176.84
2023-08-29T04:50:09.222Z,94170.72
2023-08-29T04:52:36.131Z,94176.50
2023-08-29T04:55:03.063Z,94179.47
2023-08-29T04:57:30.764Z,94174.38
2023-08-29T04:59:57.462Z,94173.91
2023-08-29T05:02:24.403Z,94166.19
2023-08-29T05:04:53.684Z,94148.03
2023-08-29T05:07:20.636Z,94155.56
2023-08-29T05:09:48.263Z,94155.75
2023-08-29T05:12:15.220Z,94144.41
2023-08-29T05:14:42.103Z,94144.50
2023-08-29T05:17:10.382Z,94154.13
2023-08-29T05:19:37.286Z,94160.50
2023-08-29T05:22:04.328Z,94165.34
2023-08-29T05:24:31.170Z,94160.78
2023-08-29T05:26:57.938Z,94147.28
2023-08-29T05:29:24.708Z,94153.16
2023-08-29T05:31:51.574Z,94149.03
2023-08-29T05:34:18.284Z,94151.44
2023-08-29T05:36:46.721Z,94147.22
2023-08-29T05:39:13.423Z,94138.00
2023-08-29T05:41:40.239Z,94155.38
2023-08-29T05:44:06.949Z,94166.97
2023-08-29T05:46:33.684Z,94156.72
2023-08-29T05:49:00.917Z,94154.00
2023-08-29T05:51:28.042Z,94156.34
2023-08-29T05:53:55.174Z,94151.19
2023-08-29T05:56:21.953Z,94152.06
2023-08-29T05:58:48.751Z,94148.72
2023-08-29T06:01:16.249Z,94144.06
2023-08-29T06:03:43.723Z,94143.25
2023-08-29T06:06:11.001Z,94146.53
2023-08-29T06:08:37.810Z,94146.19
2023-08-29T06:11:05.066Z,94152.97
2023-08-29T06:13:32.488Z,94150.84
2023-08-29T06:15:59.304Z,94164.94
2023-08-29T06:18:26.114Z,94160.75
2023-08-29T06:20:52.993Z,94156.38
2023-08-29T06:23:19.949Z,94157.38
2023-08-29T06:25:46.737Z,94145.97
2023-08-29T06:28:13.610Z,94152.63
2023-08-29T06:30:40.524Z,94158.25
2023-08-29T06:33:08.100Z,94160.66
2023-08-29T06:35:39.526Z,94149.31
2023-08-29T06:38:08.750Z,94155.75
2023-08-29T06:40:40.858Z,94159.13
2023-08-29T06:43:07.675Z,94159.38
2023-08-29T06:45:34.499Z,94149.72
2023-08-29T06:48:01.360Z,94155.53
2023-08-29T06:50:28.133Z,94154.25
2023-08-29T06:52:55.044Z,94158.28
2023-08-29T06:55:21.797Z,94153.81
2023-08-29T06:57:48.655Z,94147.66
2023-08-29T07:00:17.863Z,94152.63
2023-08-29T07:02:44.789Z,94143.63
2023-08-29T07:05:11.589Z,94146.13
2023-08-29T07:07:40.062Z,94147.75
2023-08-29T07:10:06.940Z,94145.59
2023-08-29T07:12:33.925Z,94149.19
2023-08-29T07:15:02.142Z,94148.66
2023-08-29T07:17:29.324Z,94157.94
2023-08-29T07:19:56.340Z,94150.38
2023-08-29T07:22:24.698Z,94153.53
2023-08-29T07:24:52.135Z,94150.13
2023-08-29T07:27:19.192Z,94153.84
2023-08-29T07:29:45.994Z,94165.59
2023-08-29T07:32:12.750Z,94153.84
2023-08-29T07:34:41.279Z,94150.84
2023-08-29T07:37:08.616Z,94147.88
2023-08-29T07:39:35.874Z,94155.88
2023-08-29T07:42:02.906Z,94160.56
2023-08-29T07:44:30.741Z,94158.25
2023-08-29T07:47:13.583Z,94151.38
2023-08-29T07:49:42.290Z,94148.34
2023-08-29T07:52:09.391Z,94151.09
2023-08-29T07:54:36.452Z,94150.06
2023-08-29T07:57:03.289Z,94148.81
2023-08-29T07:59:30.116Z,94143.78
2023-08-29T08:01:57.314Z,94137.16
2023-08-29T08:04:24.316Z,94149.22
2023-08-29T08:06:51.212Z,94136.88
2023-08-29T08:09:18.064Z,94140.91
2023-08-29T08:11:44.918Z,94139.94
2023-08-29T08:14:12.605Z,94130.94
2023-08-29T08:16:39.547Z,94133.34
2023-08-29T08:19:06.704Z,94127.84
2023-08-29T08:21:33.584Z,94127.03
2023-08-29T08:24:00.658Z,94119.72
2023-08-29T08:26:28.073Z,94125.47
2023-08-29T08:28:56.218Z,94114.88
2023-08-29T08:31:24.865Z,94121.75
2023-08-29T08:33:51.683Z,94114.72
2023-08-29T08:36:18.492Z,94111.78
2023-08-29T08:38:45.188Z,94100.56
2023-08-29T08:41:12.604Z,94104.81
2023-08-29T08:43:41.776Z,94103.59
2023-08-29T08:46:08.925Z,94097.78
2023-08-29T08:48:36.823Z,94100.78
2023-08-29T08:51:05.412Z,94093.22
2023-08-29T08:53:32.744Z,94103.97
2023-08-29T08:56:00.602Z,94099.94
2023-08-29T08:58:27.624Z,94099.91
2023-08-29T09:00:55.282Z,94101.97
2023-08-29T09:03:22.275Z,94096.78
2023-08-29T09:05:49.187Z,94096.78
2023-08-29T09:08:16.224Z,94094.41
2023-08-29T09:10:42.988Z,94105.53
2023-08-29T09:13:15.994Z,94091.41
2023-08-29T09:15:43.013Z,94095.78
2023-08-29T09:18:14.671Z,94091.41
2023-08-29T09:20:44.221Z,94077.66
2023-08-29T09:23:26.973Z,94083.47
2023-08-29T09:25:57.508Z,94077.66
2023-08-29T09:28:26.945Z,94077.25
2023-08-29T09:30:53.844Z,94075.69
2023-08-29T09:33:22.734Z,94083.16
2023-08-29T09:35:49.898Z,94087.44
2023-08-29T09:38:17.501Z,94096.03
2023-08-29T09:40:49.985Z,94092.09
2023-08-29T09:43:18.216Z,94086.16
2023-08-29T09:45:54.629Z,94084.19
2023-08-29T09:48:21.657Z,94086.28
2023-08-29T09:50:49.206Z,94083.56
2023-08-29T09:53:17.417Z,94080.78
2023-08-29T09:55:49.484Z,94085.91
2023-08-29T09:58:24.939Z,94088.25
2023-08-29T10:00:53.034Z,94084.34
2023-08-29T10:03:20.574Z,94080.81
2023-08-29T10:05:48.323Z,94078.06
2023-08-29T10:08:18.252Z,94074.47
2023-08-29T10:10:45.125Z,94072.53
2023-08-29T10:13:12.616Z,94074.03
2023-08-29T10:15:40.763Z,94072.47
2023-08-29T10:18:08.904Z,94062.31
2023-08-29T10:20:36.593Z,94066.25
2023-08-29T10:23:04.351Z,94065.09
2023-08-29T10:25:32.094Z,94068.22
2023-08-29T10:27:59.162Z,94058.38
2023-08-29T10:30:26.793Z,94058.28
2023-08-29T10:32:56.726Z,94055.16
2023-08-29T10:35:27.228Z,94050.88
2023-08-29T10:37:54.154Z,94049.69
2023-08-29T10:40:21.544Z,94041.84
2023-08-29T10:42:49.334Z,94044.22
2023-08-29T10:45:16.256Z,94039.91
2023-08-29T10:47:49.285Z,94043.44
2023-08-29T10:50:21.310Z,94035.22
2023-08-29T10:52:48.545Z,94035.94
2023-08-29T10:55:25.391Z,94043.41
2023-08-29T10:57:59.699Z,94048.91
2023-08-29T11:00:36.566Z,94041.06
2023-08-29T11:03:04.189Z,94039.84
2023-08-29T11:05:31.284Z,94039.94
2023-08-29T11:08:16.940Z,94041.50
2023-08-29T11:10:43.819Z,94031.25
2023-08-29T11:13:13.299Z,94030.84
2023-08-29T11:15:49.157Z,94028.91
2023-08-29T11:18:23.263Z,94023.41
2023-08-29T11:20:50.309Z,94016.72
2023-08-29T11:23:17.050Z,94023.00
2023-08-29T11:25:43.798Z,94028.50
2023-08-29T11:28:11.229Z,94025.38
2023-08-29T11:30:44.163Z,94013.97
2023-08-29T11:33:12.109Z,94010.81
2023-08-29T11:35:39.316Z,94010.41
2023-08-29T11:38:07.434Z,94009.66
2023-08-29T11:40:41.430Z,94013.91
2023-08-29T11:43:54.807Z,94013.53
2023-08-29T11:46:04.759Z,94010.44
2023-08-29T11:48:32.495Z,94008.06
2023-08-29T11:51:02.387Z,93998.63
2023-08-29T11:53:29.901Z,94002.16
2023-08-29T11:55:56.850Z,93994.69
2023-08-29T11:58:36.612Z,94001.72
2023-08-29T12:01:04.737Z,93998.19
2023-08-29T12:03:35.188Z,93992.72
2023-08-29T12:06:04.791Z,94004.00
2023-08-29T12:08:35.812Z,93995.47
2023-08-29T12:11:02.759Z,94000.09
2023-08-29T12:13:29.529Z,94007.94
2023-08-29T12:15:59.370Z,94001.56
2023-08-29T12:18:26.883Z,94013.06
2023-08-29T12:21:09.391Z,94009.41
2023-08-29T12:23:36.201Z,94010.72
2023-08-29T12:26:02.988Z,94010.19
2023-08-29T12:28:29.835Z,94008.69
2023-08-29T12:30:57.924Z,94005.56
2023-08-29T12:33:25.029Z,94008.41
2023-08-29T12:35:51.844Z,94005.25
2023-08-29T12:38:19.444Z,94000.19
2023-08-29T12:40:46.569Z,94002.94
2023-08-29T12:43:14.260Z,93999.41
2023-08-29T12:45:52.672Z,93994.31
2023-08-29T12:48:24.125Z,93994.31
2023-08-29T12:50:50.830Z,93986.41
2023-08-29T12:53:18.125Z,93999.81
2023-08-29T12:55:44.944Z,93984.88
2023-08-29T12:58:11.874Z,93986.81
2023-08-29T13:00:39.391Z,93974.25
2023-08-29T13:03:06.955Z,93974.25
2023-08-29T13:05:33.776Z,93970.69
2023-08-29T13:08:00.563Z,93970.69
2023-08-29T13:10:27.410Z,93961.94
2023-08-29T13:12:54.250Z,93953.25
2023-08-29T13:15:21.185Z,93951.25
2023-08-29T13:17:50.749Z,93946.41
2023-08-29T13:20:18.154Z,93942.41
2023-08-29T13:22:47.283Z,93950.19
2023-08-29T13:25:14.167Z,93939.03
2023-08-29T13:27:41.135Z,93934.72
2023-08-29T13:30:08.194Z,93933.47
2023-08-29T13:32:38.011Z,93925.84
2023-08-29T13:35:05.681Z,93919.41
2023-08-29T13:37:32.901Z,93918.56
2023-08-29T13:39:59.982Z,93911.38
2023-08-29T13:42:26.822Z,93902.81
2023-08-29T13:44:55.692Z,93911.59
2023-08-29T13:47:23.419Z,93912.28
2023-08-29T13:49:50.180Z,93904.31
2023-08-29T13:52:16.935Z,93904.44
2023-08-29T13:54:43.643Z,93901.00
2023-08-29T13:57:10.564Z,93907.47
2023-08-29T13:59:37.326Z,93907.94
2023-08-29T14:02:04.266Z,93909.66
2023-08-29T14:04:30.977Z,93899.47
2023-08-29T14:06:57.902Z,93903.56
2023-08-29T14:09:24.708Z,93913.06
2023-08-29T14:11:51.569Z,93918.16
2023-08-29T14:14:18.466Z,93915.94
2023-08-29T14:16:45.403Z,93925.84
2023-08-29T14:19:13.971Z,93924.31
2023-08-29T14:21:40.758Z,93918.84
2023-08-29T14:24:07.816Z,93919.63
2023-08-29T14:26:34.548Z,93930.97
2023-08-29T14:29:01.384Z,93921.44
2023-08-29T14:31:28.109Z,93895.53
2023-08-29T14:33:54.973Z,93879.13
2023-08-29T14:36:21.892Z,93882.31
2023-08-29T14:38:48.652Z,93872.09
2023-08-29T14:41:15.377Z,93876.81
2023-08-29T14:43:42.391Z,93868.97
2023-08-29T14:46:09.353Z,93863.38
2023-08-29T14:48:36.729Z,93860.16
2023-08-29T14:51:03.839Z,93861.81
2023-08-29T14:53:30.640Z,93859.13
2023-08-29T14:55:57.462Z,93865.78
2023-08-29T14:58:25.700Z,93862.94
2023-08-29T15:00:52.514Z,93869.97
2023-08-29T15:03:19.597Z,93868.56
2023-08-29T15:05:46.413Z,93871.22
2023-08-29T15:08:13.299Z,93867.94
2023-08-29T15:10:39.976Z,93872.22
2023-08-29T15:13:06.812Z,93865.59
2023-08-29T15:15:36.732Z,93861.25
2023-08-29T15:18:03.716Z,93864.13
2023-08-29T15:20:31.304Z,93854.69
2023-08-29T15:22:58.117Z,93836.28
2023-08-29T15:25:24.899Z,93860.16
2023-08-29T15:27:51.733Z,93856.66
2023-08-29T15:30:18.508Z,93858.63
2023-08-29T15:32:46.917Z,93846.66
2023-08-29T15:35:13.831Z,93844.19
2023-08-29T15:37:40.532Z,93842.97
2023-08-29T15:40:08.211Z,93847.88
2023-08-29T15:42:35.125Z,93840.41
2023-08-29T15:45:01.920Z,93847.88
2023-08-29T15:47:28.787Z,93853.41
2023-08-29T15:49:55.568Z,93846.56
2023-08-29T15:52:22.382Z,93844.81
2023-08-29T15:54:49.541Z,93844.97
2023-08-29T15:57:17.067Z,93841.81
2023-08-29T15:59:43.952Z,93836.28
2023-08-29T16:02:13.825Z,93835.97
2023-08-29T16:04:43.877Z,93838.31
2023-08-29T16:07:10.754Z,93835.16
2023-08-29T16:09:37.555Z,93834.97
2023-08-29T16:12:04.646Z,93830.22
2023-08-29T16:14:31.401Z,93835.72
2023-08-29T16:16:58.482Z,93829.44
2023-08-29T16:19:25.576Z,93826.09
2023-08-29T16:21:52.344Z,93837.06
2023-08-29T16:24:19.290Z,93831.56
2023-08-29T16:26:46.445Z,93836.16
2023-08-29T16:29:13.482Z,93845.88
2023-08-29T16:31:42.013Z,93840.72
2023-08-29T16:34:08.817Z,93848.53
2023-08-29T16:36:35.613Z,93854.63
2023-08-29T16:39:03.283Z,93859.63
2023-08-29T16:41:30.234Z,93857.56
2023-08-29T16:43:56.988Z,93870.84
2023-08-29T16:46:23.690Z,93860.59
2023-08-29T16:48:50.580Z,93867.13
2023-08-29T16:51:17.707Z,93873.06
2023-08-29T16:53:44.817Z,93879.13
2023-08-29T16:56:11.622Z,93866.53
2023-08-29T16:58:38.368Z,93878.25
2023-08-29T17:01:05.213Z,93884.09
2023-08-29T17:03:32.143Z,93884.94
2023-08-29T17:05:59.133Z,93872.34
2023-08-29T17:08:25.923Z,93866.00
2023-08-29T17:10:53.197Z,93874.63
2023-08-29T17:13:20.085Z,93871.94
2023-08-29T17:15:46.943Z,93881.38
2023-08-29T17:18:13.664Z,93879.03
2023-08-29T17:20:40.459Z,93881.00
2023-08-29T17:23:07.225Z,93874.56
2023-08-29T17:25:34.189Z,93877.25
2023-08-29T17:28:00.930Z,93875.75
2023-08-29T17:30:27.852Z,93884.50
2023-08-29T17:32:54.752Z,93883.25
2023-08-29T17:35:21.496Z,93895.72
2023-08-29T17:37:48.362Z,93898.88
2023-08-29T17:40:15.163Z,93904.50
2023-08-29T17:42:43.701Z,93904.06
2023-08-29T17:45:11.155Z,93914.56
2023-08-29T17:47:37.996Z,93912.13
2023-08-29T17:50:08.226Z,93915.00
2023-08-29T17:52:35.324Z,93917.81
2023-08-29T17:55:03.145Z,93921.69
2023-08-29T17:57:30.611Z,93924.09
2023-08-29T17:59:58.435Z,93919.97
2023-08-29T18:02:26.135Z,93918.63
2023-08-29T18:04:53.039Z,93920.72
2023-08-29T18:07:21.268Z,93924.00
2023-08-29T18:10:06.499Z,93916.22
2023-08-29T18:12:33.661Z,93901.69
2023-08-29T18:15:00.804Z,93904.00
2023-08-29T18:17:27.832Z,93900.47
2023-08-29T18:19:56.544Z,93909.44
2023-08-29T18:22:24.456Z,93907.78
2023-08-29T18:24:51.596Z,93907.00
2023-08-29T18:27:18.797Z,93907.31
2023-08-29T18:29:46.825Z,93919.56
2023-08-29T18:32:14.105Z,93916.06
2023-08-29T18:34:40.861Z,93919.22
2023-08-29T18:37:10.589Z,93903.78
2023-08-29T18:39:38.486Z,93902.09
2023-08-29T18:42:06.171Z,93901.13
2023-08-29T18:44:35.179Z,93908.72
2023-08-29T18:47:01.942Z,93909.75
2023-08-29T18:49:29.488Z,93909.84
2023-08-29T18:51:56.315Z,93908.47
2023-08-29T18:54:23.117Z,93911.88
2023-08-29T18:56:50.324Z,93909.03
2023-08-29T18:59:17.145Z,93906.97
2023-08-29T19:01:43.836Z,93904.50
2023-08-29T19:04:10.527Z,93902.66
2023-08-29T19:06:37.790Z,93919.69
2023-08-29T19:09:04.904Z,93929.69
2023-08-29T19:11:31.735Z,93928.56
2023-08-29T19:13:58.517Z,93936.47
2023-08-29T19:16:26.077Z,93942.63
2023-08-29T19:18:53.015Z,93952.03
2023-08-29T19:21:19.772Z,93950.94
2023-08-29T19:23:46.521Z,93967.31
2023-08-29T19:26:13.747Z,93969.78
2023-08-29T19:28:40.590Z,93974.06
2023-08-29T19:31:07.456Z,93977.34
2023-08-29T19:33:34.232Z,93973.03
2023-08-29T19:36:17.492Z,93974.44
2023-08-29T19:38:44.978Z,93967.81
2023-08-29T19:41:13.034Z,93973.19
2023-08-29T19:43:40.047Z,93976.34
2023-08-29T19:46:06.846Z,93986.38
2023-08-29T19:48:33.928Z,93984.38
2023-08-29T19:51:00.966Z,93979.38
2023-08-29T19:53:27.806Z,93973.81
2023-08-29T19:55:54.973Z,93971.53
2023-08-29T19:58:24.876Z,93969.41
2023-08-29T20:00:52.548Z,93974.59
2023-08-29T20:03:19.742Z,93971.88
2023-08-29T20:05:46.657Z,93978.97
2023-08-29T20:08:16.056Z,93975.78
2023-08-29T20:10:44.220Z,93977.22
2023-08-29T20:13:11.115Z,93971.41
2023-08-29T20:15:44.551Z,93971.31
2023-08-29T20:18:12.656Z,93968.22
2023-08-29T20:20:40.284Z,93967.78
2023-08-29T20:23:07.620Z,93960.88
2023-08-29T20:25:34.282Z,93961.28
2023-08-29T20:28:01.912Z,93967.16
2023-08-29T20:30:28.853Z,93966.59
2023-08-29T20:32:55.902Z,93961.41
2023-08-29T20:35:22.837Z,93963.59
2023-08-29T20:37:49.518Z,93969.09
2023-08-29T20:40:16.363Z,93973.72
2023-08-29T20:42:43.323Z,93973.88
2023-08-29T20:45:12.001Z,93983.19
2023-08-29T20:47:39.429Z,93984.34
2023-08-29T20:50:06.429Z,93993.75
2023-08-29T20:52:33.182Z,93994.38
2023-08-29T20:55:00.186Z,93996.31
2023-08-29T20:57:26.881Z,94005.72
2023-08-29T20:59:53.727Z,94000.72
2023-08-29T21:02:22.752Z,94009.13
2023-08-29T21:04:50.200Z,94010.38
2023-08-29T21:07:17.157Z,94016.06
2023-08-29T21:09:43.933Z,94011.19
2023-08-29T21:12:10.729Z,94012.38
2023-08-29T21:14:37.609Z,94011.59
2023-08-29T21:17:04.804Z,94018.28
2023-08-29T21:19:31.634Z,94014.56
2023-08-29T21:21:58.468Z,94014.66
2023-08-29T21:24:25.203Z,94005.81
2023-08-29T21:26:51.998Z,94011.66
2023-08-29T21:29:18.704Z,94012.56
2023-08-29T21:31:45.597Z,94009.28
2023-08-29T21:34:12.419Z,94011.50
2023-08-29T21:36:39.618Z,94010.72
2023-08-29T21:39:08.512Z,94022.97
2023-08-29T21:41:35.362Z,94026.16
2023-08-29T21:44:02.090Z,94032.47
2023-08-29T21:46:28.924Z,94031.00
2023-08-29T21:48:55.682Z,94022.59
2023-08-29T21:51:24.020Z,94027.06
2023-08-29T21:53:51.183Z,94004.56
2023-08-29T21:56:20.023Z,94032.72
2023-08-29T21:58:46.832Z,94035.19
2023-08-29T22:01:13.733Z,94028.66
2023-08-29T22:03:40.530Z,94022.25
2023-08-29T22:06:07.468Z,94039.00
2023-08-29T22:08:34.861Z,94043.63
2023-08-29T22:11:02.907Z,94045.81
2023-08-29T22:13:29.640Z,94043.56
2023-08-29T22:15:56.579Z,94045.34
2023-08-29T22:18:25.381Z,94046.25
2023-08-29T22:20:52.255Z,94036.75
2023-08-29T22:23:19.229Z,94031.31
2023-08-29T22:25:46.113Z,94043.69
2023-08-29T22:28:12.864Z,94045.16
2023-08-29T22:30:39.753Z,94048.75
2023-08-29T22:33:06.830Z,94041.41
2023-08-29T22:35:33.618Z,94040.69
2023-08-29T22:38:00.487Z,94029.81
2023-08-29T22:40:27.309Z,94029.03
2023-08-29T22:42:54.125Z,94021.22
2023-08-29T22:45:20.913Z,94038.09
2023-08-29T22:47:50.098Z,94048.47
2023-08-29T22:50:16.980Z,94045.91
2023-08-29T22:52:43.754Z,94035.47
2023-08-29T22:55:10.547Z,94035.44
2023-08-29T22:57:37.300Z,94036.66
2023-08-29T23:00:05.637Z,94044.25
2023-08-29T23:02:32.562Z,94056.78
2023-08-29T23:04:59.290Z,94060.75
2023-08-29T23:07:26.001Z,94058.56
2023-08-29T23:09:52.751Z,94046.91
2023-08-29T23:12:20.225Z,94051.81
2023-08-29T23:14:47.007Z,94050.22
2023-08-29T23:17:13.797Z,94053.84
2023-08-29T23:19:44.977Z,94042.22
2023-08-29T23:22:11.793Z,94053.41
2023-08-29T23:24:38.844Z,94052.53
2023-08-29T23:27:07.186Z,94065.81
2023-08-29T23:29:34.091Z,94060.03
2023-08-29T23:32:00.775Z,94054.56
2023-08-29T23:34:27.586Z,94065.00
2023-08-29T23:36:54.375Z,94079.75
2023-08-29T23:39:21.191Z,94068.72
2023-08-29T23:41:49.011Z,94062.69
2023-08-29T23:44:15.841Z,94044.09
2023-08-29T23:46:42.696Z,94038.22
2023-08-29T23:49:09.459Z,94054.22
2023-08-29T23:51:36.222Z,94072.13
2023-08-29T23:54:02.999Z,94085.16
2023-08-29T23:56:29.808Z,94089.59
2023-08-29T23:58:56.550Z,94068.47
